Time;durP1;ratioP1;P1;durP2;ratioP2;P2;SDS_P1;SDS_P2;PMS_P1;PMS_P2;Temp;Humidity;BMP_temperature;BMP_pressure;BME280_temperature;BME280_humidity;BME280_pressure;Samples;Min_cycle;Max_cycle;Signal;HPM_P1;HPM_P2
2022/08/08 00:00:04;;;;;;;3.35;1.70;;;20.50;84.90;;;;;;4047984;29;20039;-65
2022/08/08 00:02:26;;;;;;;2.78;1.73;;;20.50;87.50;;;;;;4062072;29;20044;-65
2022/08/08 00:04:53;;;;;;;2.33;1.70;;;20.40;87.40;;;;;;4048942;29;20043;-65
2022/08/08 00:07:03;;;;;;;1.80;1.50;;;20.40;87.10;;;;;;4043357;29;20045;-65
2022/08/08 00:09:13;;;;;;;2.05;1.83;;;20.40;88.20;;;;;;4061257;29;20044;-66
2022/08/08 00:11:22;;;;;;;4.88;2.00;;;20.40;88.70;;;;;;4062121;29;20024;-65
2022/08/08 00:14:05;;;;;;;2.58;1.60;;;20.30;88.00;;;;;;4060462;29;20139;-65
2022/08/08 00:16:22;;;;;;;1.80;1.50;;;20.30;90.20;;;;;;4045521;29;20029;-64
2022/08/08 00:18:38;;;;;;;2.13;1.75;;;20.20;88.00;;;;;;4051190;29;20092;-65
2022/08/08 00:20:41;;;;;;;2.63;1.75;;;20.20;88.10;;;;;;4048350;29;20028;-65
2022/08/08 00:22:49;;;;;;;2.53;1.60;;;20.20;89.90;;;;;;4050138;29;20393;-64
2022/08/08 00:24:55;;;;;;;1.90;1.60;;;20.20;88.40;;;;;;4050040;29;20368;-64
2022/08/08 00:27:11;;;;;;;6.38;2.00;;;20.10;89.40;;;;;;4049136;29;20049;-65
2022/08/08 00:29:31;;;;;;;2.13;1.80;;;20.10;90.50;;;;;;4049368;29;20116;-64
2022/08/08 00:31:39;;;;;;;1.80;1.40;;;20.10;90.10;;;;;;4047855;29;20096;-65
2022/08/08 00:33:48;;;;;;;3.85;1.83;;;20.10;90.30;;;;;;4048864;29;20036;-65
2022/08/08 00:36:07;;;;;;;2.33;1.95;;;20.10;89.60;;;;;;4047969;29;20033;-65
2022/08/08 00:38:17;;;;;;;1.70;1.60;;;20.00;89.50;;;;;;4051206;29;20542;-65
2022/08/08 00:40:38;;;;;;;2.70;1.98;;;20.00;90.10;;;;;;4048404;29;20036;-65
2022/08/08 00:42:41;;;;;;;2.08;1.85;;;20.00;90.40;;;;;;4048763;29;20024;-65
2022/08/08 00:45:17;;;;;;;2.50;2.08;;;19.90;91.00;;;;;;4048774;29;20029;-64
2022/08/08 00:47:40;;;;;;;3.50;1.98;;;19.90;90.80;;;;;;4056923;29;20033;-64
2022/08/08 00:50:04;;;;;;;2.08;1.90;;;19.90;90.20;;;;;;4052363;29;20093;-65
2022/08/08 00:52:26;;;;;;;3.97;2.33;;;19.90;90.50;;;;;;4049453;29;20036;-65
2022/08/08 00:54:52;;;;;;;3.58;2.15;;;19.80;90.50;;;;;;4047755;29;20539;-63
2022/08/08 00:57:32;;;;;;;2.50;1.83;;;19.80;91.70;;;;;;4049547;29;20387;-65
2022/08/08 01:00:09;;;;;;;5.80;2.25;;;19.80;90.90;;;;;;4049092;29;20044;-64
2022/08/08 01:02:27;;;;;;;2.25;1.80;;;19.80;90.90;;;;;;4046791;29;20139;-64
2022/08/08 01:04:42;;;;;;;2.38;2.05;;;19.80;91.40;;;;;;4048358;29;20043;-64
2022/08/08 01:07:22;;;;;;;2.92;1.92;;;19.70;91.30;;;;;;4048593;29;20036;-65
2022/08/08 01:09:36;;;;;;;3.22;2.22;;;19.70;91.40;;;;;;4049642;29;20036;-64
2022/08/08 01:12:10;;;;;;;3.28;2.42;;;19.70;91.40;;;;;;4047161;29;20060;-64
2022/08/08 01:14:48;;;;;;;3.22;2.10;;;19.70;91.80;;;;;;4046916;29;20036;-64
2022/08/08 01:17:07;;;;;;;3.50;2.75;;;19.60;92.10;;;;;;4048943;29;20463;-65
2022/08/08 01:19:46;;;;;;;3.42;2.47;;;19.60;92.60;;;;;;4047632;29;20373;-65
2022/08/08 01:22:37;;;;;;;4.03;1.98;;;19.60;92.40;;;;;;4047294;29;20068;-64
2022/08/08 01:24:54;;;;;;;3.65;2.03;;;19.50;91.80;;;;;;4036297;29;20063;-65
2022/08/08 01:27:29;;;;;;;2.95;2.45;;;19.50;92.10;;;;;;4049159;29;20041;-64
2022/08/08 01:30:09;;;;;;;2.47;2.13;;;19.50;92.30;;;;;;4047055;29;20056;-64
2022/08/08 01:32:46;;;;;;;4.18;2.33;;;19.50;92.70;;;;;;4062867;29;20501;-65
2022/08/08 01:35:11;;;;;;;4.30;2.30;;;19.50;93.60;;;;;;4063202;29;20036;-65
2022/08/08 01:37:30;;;;;;;4.68;2.70;;;19.40;93.10;;;;;;4064406;29;20051;-64
2022/08/08 01:40:02;;;;;;;3.28;2.38;;;19.40;93.60;;;;;;4064689;29;20376;-64
2022/08/08 01:42:39;;;;;;;3.70;2.70;;;19.40;93.70;;;;;;4063227;29;20038;-67
2022/08/08 01:45:05;;;;;;;2.83;2.22;;;19.30;93.90;;;;;;4063600;29;20036;-64
2022/08/08 01:47:20;;;;;;;3.70;2.50;;;19.30;93.90;;;;;;4063736;29;20166;-64
2022/08/08 01:49:30;;;;;;;5.40;2.75;;;19.30;94.00;;;;;;4064412;29;20040;-65
2022/08/08 01:51:46;;;;;;;2.97;2.45;;;19.30;93.50;;;;;;4063811;29;20074;-65
2022/08/08 01:54:03;;;;;;;3.35;2.33;;;19.30;93.50;;;;;;4063844;29;20087;-65
2022/08/08 01:56:14;;;;;;;3.67;2.35;;;19.30;93.50;;;;;;4063002;29;20464;-65
2022/08/08 01:58:17;;;;;;;4.78;2.92;;;19.30;93.60;;;;;;4064260;29;20111;-64
2022/08/08 02:00:22;;;;;;;4.47;2.65;;;19.20;93.60;;;;;;4063785;29;20423;-64
2022/08/08 02:03:00;;;;;;;3.03;2.65;;;19.20;93.70;;;;;;4064787;29;20502;-65
2022/08/08 02:05:19;;;;;;;3.33;2.58;;;19.20;93.90;;;;;;4063165;29;20040;-64
2022/08/08 02:07:31;;;;;;;5.25;2.92;;;19.20;94.10;;;;;;4064101;29;20040;-64
2022/08/08 02:09:41;;;;;;;4.10;2.30;;;19.20;94.30;;;;;;4064654;29;20119;-64
2022/08/08 02:11:44;;;;;;;2.92;2.30;;;19.10;94.00;;;;;;4063639;29;20375;-64
2022/08/08 02:14:03;;;;;;;3.38;2.58;;;19.10;94.10;;;;;;4064323;29;20039;-65
2022/08/08 02:16:53;;;;;;;3.38;2.33;;;19.10;94.60;;;;;;4062767;29;20036;-66
2022/08/08 02:19:12;;;;;;;6.72;2.90;;;19.20;94.30;;;;;;4048347;29;20048;-65
2022/08/08 02:24:15;;;;;;;4.57;2.70;;;19.10;94.80;;;;;;4060415;29;20043;-65
2022/08/08 02:26:48;;;;;;;3.83;2.40;;;19.10;94.60;;;;;;4060332;29;20050;-65
2022/08/08 02:28:58;;;;;;;;;;;19.10;94.60;;;;;;4047735;29;20199;-65
2022/08/08 02:31:31;;;;;;;3.65;3.00;;;19.10;94.50;;;;;;4063244;29;20397;-64
2022/08/08 02:34:10;;;;;;;3.10;2.28;;;19.10;94.60;;;;;;4063944;29;20060;-64
2022/08/08 02:36:26;;;;;;;3.47;2.35;;;19.10;94.60;;;;;;4062307;29;20043;-64
2022/08/08 02:38:42;;;;;;;4.53;2.85;;;19.10;94.80;;;;;;4063981;29;20387;-64
2022/08/08 02:41:19;;;;;;;3.83;2.70;;;19.10;94.60;;;;;;4063402;29;20060;-64
2022/08/08 02:43:47;;;;;;;5.65;3.10;;;19.10;94.80;;;;;;4063412;29;20029;-64
2022/08/08 02:46:19;;;;;;;3.90;2.58;;;19.10;94.70;;;;;;4049683;29;20032;-66
2022/08/08 02:48:32;;;;;;;3.63;2.47;;;19.00;94.90;;;;;;4048855;29;20033;-64
2022/08/08 02:51:00;;;;;;;3.17;2.55;;;19.00;95.40;;;;;;4065028;29;20511;-65
2022/08/08 02:53:19;;;;;;;4.32;2.97;;;19.00;94.70;;;;;;4051531;29;20033;-64
2022/08/08 02:56:02;;;;;;;4.00;2.75;;;19.00;94.40;;;;;;4050171;29;20032;-64
2022/08/08 02:58:39;;;;;;;2.40;2.20;;;19.00;94.40;;;;;;4051232;29;20043;-65
2022/08/08 03:01:09;;;;;;;4.00;2.53;;;19.00;94.60;;;;;;4065735;29;20111;-65
2022/08/08 03:03:21;;;;;;;4.15;2.55;;;19.00;94.70;;;;;;4066606;29;20392;-65
2022/08/08 03:05:36;;;;;;;4.05;2.58;;;18.90;94.70;;;;;;4065593;29;20059;-64
2022/08/08 03:08:23;;;;;;;4.60;3.00;;;18.90;94.60;;;;;;4066749;29;20044;-65
2022/08/08 03:10:45;;;;;;;4.97;2.55;;;18.90;94.80;;;;;;4065745;29;20028;-64
2022/08/08 03:13:01;;;;;;;4.05;2.53;;;18.90;94.80;;;;;;4066541;29;20036;-64
2022/08/08 03:15:27;;;;;;;3.83;2.83;;;18.90;95.20;;;;;;4066392;29;20028;-64
2022/08/08 03:17:52;;;;;;;4.40;2.70;;;18.90;95.20;;;;;;4062810;29;20092;-65
2022/08/08 03:20:10;;;;;;;3.08;2.78;;;18.90;95.60;;;;;;4062350;29;20040;-64
2022/08/08 03:22:10;;;;;;;5.13;3.30;;;18.80;95.70;;;;;;4066623;29;20515;-64
2022/08/08 03:24:14;;;;;;;5.80;2.85;;;18.80;95.80;;;;;;4066033;29;20044;-65
2022/08/08 03:26:25;;;;;;;4.32;3.17;;;18.80;95.60;;;;;;4066026;29;20032;-64
2022/08/08 03:28:42;;;;;;;4.13;2.80;;;18.80;96.00;;;;;;4066382;29;20046;-64
2022/08/08 03:30:44;;;;;;;5.63;3.45;;;18.80;96.40;;;;;;4066042;29;20040;-64
2022/08/08 03:35:05;;;;;;;5.32;3.40;;;18.80;95.90;;;;;;4065524;29;20550;-67
2022/08/08 03:37:15;;;;;;;4.93;3.00;;;18.80;95.90;;;;;;4065826;29;20032;-65
2022/08/08 03:39:16;;;;;;;4.20;2.78;;;18.80;96.00;;;;;;4066292;29;20035;-64
2022/08/08 03:41:17;;;;;;;5.03;3.42;;;18.80;95.90;;;;;;4065482;29;20036;-66
2022/08/08 03:43:17;;;;;;;3.92;3.05;;;18.70;96.30;;;;;;4066364;29;20035;-65
2022/08/08 03:45:22;;;;;;;5.93;3.70;;;18.70;96.20;;;;;;4065155;29;20036;-65
2022/08/08 03:47:22;;;;;;;4.38;3.20;;;18.70;96.30;;;;;;4066506;29;20449;-65
2022/08/08 03:49:25;;;;;;;5.47;2.75;;;18.70;96.70;;;;;;4065733;29;20040;-64
2022/08/08 03:51:27;;;;;;;5.65;3.30;;;18.70;97.20;;;;;;4065856;29;20024;-64
2022/08/08 03:53:35;;;;;;;6.80;4.05;;;18.60;96.90;;;;;;4066431;29;20036;-64
2022/08/08 03:55:48;;;;;;;5.03;3.53;;;18.60;96.80;;;;;;4063470;29;20051;-66
2022/08/08 03:57:53;;;;;;;;;;;18.60;96.90;;;;;;4066660;29;20032;-65
2022/08/08 03:59:54;;;;;;;3.97;3.05;;;18.60;97.70;;;;;;4065919;29;19911;-64
2022/08/08 04:01:54;;;;;;;5.85;3.47;;;18.50;97.30;;;;;;4064658;29;21155;-64
2022/08/08 04:03:55;;;;;;;4.68;3.22;;;18.50;97.40;;;;;;4065881;29;20387;-64
2022/08/08 04:05:55;;;;;;;5.82;2.95;;;18.50;97.50;;;;;;4062703;29;20123;-64
2022/08/08 04:07:57;;;;;;;3.83;3.05;;;18.50;97.60;;;;;;4065643;29;20028;-64
2022/08/08 04:09:58;;;;;;;5.72;2.88;;;18.40;97.70;;;;;;4066223;29;20111;-64
2022/08/08 04:11:59;;;;;;;6.43;3.20;;;18.40;97.70;;;;;;4065731;29;20484;-64
2022/08/08 04:14:00;;;;;;;5.03;3.33;;;18.40;97.80;;;;;;4065689;29;20043;-64
2022/08/08 04:16:00;;;;;;;3.92;2.78;;;18.40;97.80;;;;;;4064947;29;20396;-65
2022/08/08 04:18:01;;;;;;;4.05;3.30;;;18.40;98.20;;;;;;4065953;29;20032;-64
2022/08/08 04:20:02;;;;;;;3.78;3.10;;;18.40;98.00;;;;;;4066101;29;20474;-64
2022/08/08 04:22:04;;;;;;;4.28;3.15;;;18.40;98.10;;;;;;4063955;29;20111;-64
2022/08/08 04:24:04;;;;;;;3.70;2.80;;;18.50;98.40;;;;;;4064386;29;20047;-64
2022/08/08 04:26:06;;;;;;;3.75;2.90;;;18.40;98.00;;;;;;4065215;29;20175;-64
2022/08/08 04:28:07;;;;;;;3.58;2.75;;;18.40;98.50;;;;;;4079981;29;20070;-65
2022/08/08 04:30:08;;;;;;;5.68;3.10;;;18.50;98.70;;;;;;4065338;29;20059;-66
2022/08/08 04:32:13;;;;;;;3.72;2.85;;;18.40;98.30;;;;;;4065710;29;20065;-65
2022/08/08 04:34:13;;;;;;;4.43;3.58;;;18.40;98.20;;;;;;4065143;29;20047;-64
2022/08/08 04:36:14;;;;;;;4.15;2.90;;;18.40;98.30;;;;;;4065196;29;20036;-64
2022/08/08 04:38:14;;;;;;;3.47;2.67;;;18.40;98.60;;;;;;4064608;29;20032;-64
2022/08/08 04:40:15;;;;;;;3.78;2.95;;;18.40;98.30;;;;;;4065170;29;20119;-64
2022/08/08 04:42:16;;;;;;;5.00;3.30;;;18.40;98.20;;;;;;4067129;29;20526;-64
2022/08/08 04:44:16;;;;;;;5.75;3.40;;;18.40;98.10;;;;;;4065714;29;20620;-64
2022/08/08 04:46:17;;;;;;;5.80;3.15;;;18.50;98.30;;;;;;4066295;29;20040;-67
2022/08/08 04:48:18;;;;;;;4.78;3.90;;;18.40;98.20;;;;;;4065435;29;20036;-66
2022/08/08 04:50:18;;;;;;;4.70;3.03;;;18.40;98.30;;;;;;4064258;29;20075;-65
2022/08/08 04:52:19;;;;;;;3.88;3.38;;;18.40;98.30;;;;;;4067301;29;20032;-65
2022/08/08 04:54:19;;;;;;;5.88;3.72;;;18.40;98.30;;;;;;4067086;29;20044;-65
2022/08/08 04:56:20;;;;;;;3.85;3.35;;;18.40;98.40;;;;;;4064064;29;20040;-65
2022/08/08 04:58:21;;;;;;;4.13;3.05;;;18.40;98.60;;;;;;4064900;29;20064;-65
2022/08/08 05:00:24;;;;;;;4.72;3.65;;;18.40;98.90;;;;;;4064258;29;20091;-65
2022/08/08 05:02:24;;;;;;;3.38;2.97;;;18.40;98.90;;;;;;4065840;29;20028;-65
2022/08/08 05:04:25;;;;;;;4.22;3.22;;;18.30;99.00;;;;;;4063345;29;20042;-65
2022/08/08 05:06:25;;;;;;;5.53;3.20;;;18.40;99.40;;;;;;4061802;29;20056;-64
2022/08/08 05:08:26;;;;;;;4.63;3.42;;;18.40;99.80;;;;;;4063267;29;20044;-64
2022/08/08 05:10:28;;;;;;;4.22;3.15;;;18.30;99.80;;;;;;4060925;29;20091;-64
2022/08/08 05:12:29;;;;;;;3.95;3.47;;;18.40;99.90;;;;;;4065096;29;20107;-65
2022/08/08 05:14:29;;;;;;;4.38;3.25;;;18.30;99.90;;;;;;4063589;29;20103;-67
2022/08/08 05:16:31;;;;;;;4.65;3.05;;;18.30;99.90;;;;;;4063350;29;20032;-67
2022/08/08 05:18:32;;;;;;;7.10;3.50;;;18.30;99.90;;;;;;4064647;29;20123;-67
2022/08/08 05:20:33;;;;;;;4.53;3.45;;;18.30;99.90;;;;;;4062338;29;20048;-67
2022/08/08 05:22:34;;;;;;;3.90;3.08;;;18.40;99.90;;;;;;4063038;29;20119;-67
2022/08/08 05:24:35;;;;;;;3.35;3.00;;;18.30;99.90;;;;;;4063640;29;20064;-67
2022/08/08 05:26:37;;;;;;;5.88;4.07;;;18.40;99.90;;;;;;4048285;29;20483;-67
2022/08/08 05:28:37;;;;;;;5.32;3.55;;;18.40;99.90;;;;;;4047360;29;20043;-67
2022/08/08 05:30:38;;;;;;;4.00;3.38;;;18.40;99.90;;;;;;4047711;29;20028;-67
2022/08/08 05:32:39;;;;;;;3.90;3.20;;;18.50;99.90;;;;;;4048045;29;20127;-67
2022/08/08 05:34:41;;;;;;;6.25;3.80;;;18.50;99.90;;;;;;4048219;29;20041;-67
2022/08/08 05:36:44;;;;;;;6.72;4.20;;;18.50;99.90;;;;;;4048529;29;20088;-67
2022/08/08 05:38:47;;;;;;;5.10;3.67;;;18.50;99.90;;;;;;4052252;29;20048;-67
2022/08/08 05:40:49;;;;;;;;;;;18.40;99.90;;;;;;4050812;29;20058;-67
2022/08/08 05:42:53;;;;;;;7.18;3.42;;;18.50;99.90;;;;;;4049534;29;19922;-67
2022/08/08 05:44:59;;;;;;;4.60;3.13;;;18.50;99.90;;;;;;4047675;29;20503;-67
2022/08/08 05:47:00;;;;;;;4.60;3.53;;;18.50;99.90;;;;;;4048096;29;20092;-67
2022/08/08 05:49:03;;;;;;;6.30;3.70;;;18.60;99.90;;;;;;4049099;29;20037;-67
2022/08/08 05:51:04;;;;;;;5.13;3.78;;;18.60;99.90;;;;;;4049777;29;20036;-67
2022/08/08 05:53:06;;;;;;;6.65;3.33;;;18.60;99.90;;;;;;4049167;29;20040;-67
2022/08/08 05:55:08;;;;;;;6.72;3.67;;;18.60;99.90;;;;;;4062178;29;20044;-68
2022/08/08 05:57:16;;;;;;;4.32;2.92;;;18.70;99.90;;;;;;4054336;29;20035;-67
2022/08/08 05:59:21;;;;;;;5.68;3.45;;;18.70;99.90;;;;;;4049456;29;20070;-67
2022/08/08 06:01:23;;;;;;;4.75;3.53;;;18.70;99.90;;;;;;4044857;29;20040;-67
2022/08/08 06:03:25;;;;;;;5.27;3.23;;;18.80;99.90;;;;;;4046776;29;20472;-67
2022/08/08 06:05:30;;;;;;;4.28;3.30;;;18.80;99.90;;;;;;4044073;29;20170;-67
2022/08/08 06:07:32;;;;;;;5.40;3.20;;;18.80;99.90;;;;;;4044672;29;20029;-67
2022/08/08 06:09:36;;;;;;;4.72;3.58;;;18.80;99.90;;;;;;4046087;29;20470;-67
2022/08/08 06:11:36;;;;;;;4.18;3.33;;;18.80;99.90;;;;;;4044221;29;20029;-67
2022/08/08 06:13:37;;;;;;;4.13;3.30;;;18.80;99.90;;;;;;4045316;29;20041;-67
2022/08/08 06:15:38;;;;;;;8.43;4.45;;;18.90;99.90;;;;;;4050114;29;20040;-67
2022/08/08 06:17:40;;;;;;;5.18;3.65;;;18.80;99.90;;;;;;4059641;29;20054;-68
2022/08/08 06:19:41;;;;;;;5.97;3.47;;;18.80;99.90;;;;;;4058471;29;20582;-67
2022/08/08 06:21:47;;;;;;;8.20;3.97;;;18.80;99.90;;;;;;4040420;29;20045;-68
2022/08/08 06:23:48;;;;;;;4.47;3.60;;;18.80;99.90;;;;;;4059986;29;20383;-68
2022/08/08 06:26:04;;;;;;;3.72;3.08;;;18.80;99.90;;;;;;4059863;29;20044;-68
2022/08/08 06:28:22;;;;;;;3.92;3.28;;;18.80;99.90;;;;;;4060553;29;20036;-67
2022/08/08 06:30:23;;;;;;;4.60;3.28;;;18.90;99.90;;;;;;4059003;29;20787;-67
2022/08/08 06:32:29;;;;;;;6.53;3.80;;;19.10;99.90;;;;;;4059882;29;20068;-67
2022/08/08 06:34:37;;;;;;;5.45;3.80;;;19.40;99.90;;;;;;4060742;29;20047;-67
2022/08/08 06:36:43;;;;;;;4.15;3.50;;;19.40;99.90;;;;;;4059772;29;20041;-68
2022/08/08 06:38:48;;;;;;;4.32;3.25;;;19.80;99.90;;;;;;4059993;29;20513;-68
2022/08/08 06:40:50;;;;;;;4.32;3.15;;;20.20;99.90;;;;;;4060015;29;20499;-68
2022/08/08 06:43:05;;;;;;;4.03;2.80;;;20.60;99.90;;;;;;4059893;29;20518;-68
2022/08/08 06:45:06;;;;;;;4.43;3.15;;;21.00;99.90;;;;;;4060872;29;20495;-69
2022/08/08 06:47:07;;;;;;;5.03;3.70;;;21.30;96.60;;;;;;4059784;29;20066;-68
2022/08/08 06:49:08;;;;;;;6.55;3.10;;;21.60;95.80;;;;;;4060637;29;20044;-68
2022/08/08 06:51:10;;;;;;;5.20;2.90;;;21.80;95.50;;;;;;4058358;29;20051;-68
2022/08/08 06:53:11;;;;;;;;;;;22.20;94.50;;;;;;4059330;29;20563;-68
2022/08/08 06:55:11;;;;;;;3.15;2.47;;;22.40;93.90;;;;;;4053968;29;19923;-70
2022/08/08 06:57:12;;;;;;;3.30;2.45;;;22.80;93.20;;;;;;4060875;29;20318;-68
2022/08/08 06:59:12;;;;;;;3.63;1.90;;;23.20;93.50;;;;;;4061565;29;20491;-68
2022/08/08 07:01:15;;;;;;;4.00;2.15;;;23.60;92.80;;;;;;4059778;29;20171;-69
2022/08/08 07:03:29;;;;;;;2.75;2.45;;;23.90;91.90;;;;;;4060006;29;20036;-68
2022/08/08 07:05:33;;;;;;;2.70;2.20;;;24.30;92.50;;;;;;4060397;29;20515;-68
2022/08/08 07:07:51;;;;;;;4.40;2.20;;;24.50;90.10;;;;;;4060358;29;20045;-68
2022/08/08 07:10:02;;;;;;;3.15;2.22;;;24.80;92.00;;;;;;4059738;29;20040;-68
2022/08/08 07:12:06;;;;;;;2.33;2.10;;;25.10;90.50;;;;;;4042452;29;20045;-67
2022/08/08 07:14:15;;;;;;;2.95;2.45;;;25.30;89.00;;;;;;4059310;29;20519;-68
2022/08/08 07:16:27;;;;;;;2.10;1.90;;;25.40;87.40;;;;;;4060103;29;20055;-68
2022/08/08 07:18:48;;;;;;;3.15;2.38;;;25.40;87.80;;;;;;4060205;29;20040;-68
2022/08/08 07:20:53;;;;;;;3.55;1.80;;;25.40;86.80;;;;;;4058163;29;20566;-68
2022/08/08 07:23:17;;;;;;;4.70;2.17;;;25.40;85.10;;;;;;4059808;29;20032;-68
2022/08/08 07:25:22;;;;;;;3.58;2.40;;;25.50;87.00;;;;;;4059334;29;20128;-68
2022/08/08 07:27:25;;;;;;;5.78;2.53;;;25.60;88.60;;;;;;4059354;29;20071;-68
2022/08/08 07:29:26;;;;;;;2.88;2.15;;;25.60;87.20;;;;;;4060207;29;20388;-69
2022/08/08 07:31:28;;;;;;;2.38;2.00;;;25.40;81.40;;;;;;4061429;29;20593;-69
2022/08/08 07:33:30;;;;;;;3.93;2.03;;;25.60;87.20;;;;;;4062850;29;20063;-69
2022/08/08 07:35:32;;;;;;;2.65;2.20;;;25.60;81.60;;;;;;4062898;29;20055;-69
2022/08/08 07:37:35;;;;;;;2.70;2.10;;;25.30;82.00;;;;;;4062681;29;20443;-69
2022/08/08 07:39:40;;;;;;;3.03;2.40;;;25.40;84.70;;;;;;4062893;29;20087;-69
2022/08/08 07:41:41;;;;;;;3.15;2.70;;;25.40;83.10;;;;;;4060436;29;20119;-69
2022/08/08 07:43:43;;;;;;;4.55;2.42;;;25.40;82.10;;;;;;4062699;29;20511;-68
2022/08/08 07:45:44;;;;;;;4.70;2.97;;;25.10;80.80;;;;;;4061301;29;20059;-69
2022/08/08 07:47:44;;;;;;;4.85;2.97;;;24.90;83.70;;;;;;4062610;29;20395;-68
2022/08/08 07:49:45;;;;;;;5.57;2.50;;;24.80;84.10;;;;;;4062855;29;20139;-68
2022/08/08 07:51:46;;;;;;;5.32;2.65;;;24.80;84.30;;;;;;4060578;29;20038;-69
2022/08/08 07:54:08;;;;;;;2.70;2.50;;;24.50;83.30;;;;;;4062256;29;20064;-69
2022/08/08 07:56:12;;;;;;;4.18;2.40;;;24.40;82.80;;;;;;4062153;29;20036;-69
2022/08/08 07:58:20;;;;;;;4.25;2.35;;;24.50;85.90;;;;;;4060527;29;20040;-69
2022/08/08 08:00:23;;;;;;;3.20;2.40;;;24.70;88.10;;;;;;4061403;29;20052;-69
2022/08/08 08:02:36;;;;;;;4.15;2.50;;;24.80;84.60;;;;;;4062448;29;20044;-68
2022/08/08 08:04:43;;;;;;;9.02;2.85;;;24.80;85.70;;;;;;4062559;29;20044;-69
2022/08/08 08:06:45;;;;;;;4.93;3.22;;;24.50;83.00;;;;;;4060871;29;20073;-69
2022/08/08 08:08:55;;;;;;;4.93;2.40;;;24.40;82.90;;;;;;4062692;29;20182;-68
2022/08/08 08:10:56;;;;;;;3.20;2.03;;;24.60;85.10;;;;;;4061463;29;20127;-68
2022/08/08 08:13:19;;;;;;;2.92;2.20;;;24.50;84.10;;;;;;4061305;29;20376;-66
2022/08/08 08:15:24;;;;;;;4.90;2.83;;;24.70;88.50;;;;;;4062260;29;20119;-66
2022/08/08 08:17:27;;;;;;;3.45;2.53;;;24.70;84.70;;;;;;4062486;29;20088;-68
2022/08/08 08:19:31;;;;;;;;;;;24.80;84.00;;;;;;4063182;29;20035;-68
2022/08/08 08:21:42;;;;;;;4.97;2.08;;;24.80;87.10;;;;;;4061695;29;19947;-68
2022/08/08 08:23:43;;;;;;;3.03;2.13;;;24.80;84.70;;;;;;4061610;29;20032;-69
2022/08/08 08:25:43;;;;;;;5.30;3.22;;;24.90;82.00;;;;;;4062103;29;20091;-69
2022/08/08 08:27:44;;;;;;;4.15;2.88;;;24.50;80.50;;;;;;4061496;29;20024;-69
2022/08/08 08:29:45;;;;;;;3.53;2.50;;;24.30;82.00;;;;;;4062421;29;20224;-68
2022/08/08 08:31:46;;;;;;;5.45;2.20;;;24.20;82.70;;;;;;4060418;29;20044;-69
2022/08/08 08:33:47;;;;;;;2.37;1.97;;;24.30;83.90;;;;;;4062410;29;20044;-68
2022/08/08 08:35:48;;;;;;;2.45;2.10;;;24.50;85.80;;;;;;4060562;29;20092;-68
2022/08/08 08:37:49;;;;;;;3.85;2.03;;;24.50;85.60;;;;;;4062629;29;20067;-68
2022/08/08 08:39:49;;;;;;;4.35;3.03;;;24.60;84.90;;;;;;4062643;29;20108;-69
2022/08/08 08:41:51;;;;;;;3.15;2.42;;;24.70;82.60;;;;;;4060378;29;20055;-69
2022/08/08 08:43:52;;;;;;;4.35;2.25;;;24.60;82.40;;;;;;4061538;29;20048;-68
2022/08/08 08:45:56;;;;;;;2.55;2.03;;;24.60;84.90;;;;;;4062301;29;20510;-68
2022/08/08 08:47:57;;;;;;;3.63;2.28;;;24.80;88.00;;;;;;4062500;29;20042;-68
2022/08/08 08:49:57;;;;;;;2.95;1.90;;;25.00;85.40;;;;;;4062705;29;20564;-68
2022/08/08 08:52:02;;;;;;;3.80;1.73;;;25.10;83.30;;;;;;4061386;29;20054;-68
2022/08/08 08:54:06;;;;;;;3.72;2.40;;;25.30;88.20;;;;;;4061151;29;20044;-68
2022/08/08 08:56:09;;;;;;;2.85;1.80;;;25.50;86.30;;;;;;4062419;29;20527;-68
2022/08/08 08:58:42;;;;;;;2.58;1.80;;;25.60;85.00;;;;;;4062104;29;20032;-68
2022/08/08 09:00:43;;;;;;;5.03;2.20;;;25.70;83.70;;;;;;4044980;29;20091;-69
2022/08/08 09:02:45;;;;;;;3.58;2.08;;;25.70;79.80;;;;;;4045769;29;20088;-68
2022/08/08 09:04:54;;;;;;;4.78;2.50;;;25.80;84.10;;;;;;4046383;29;20048;-68
2022/08/08 09:06:57;;;;;;;3.88;2.03;;;25.90;83.20;;;;;;4048160;29;20036;-69
2022/08/08 09:09:14;;;;;;;3.25;2.05;;;26.00;83.00;;;;;;4046243;29;20140;-68
2022/08/08 09:11:17;;;;;;;4.60;2.35;;;26.10;83.10;;;;;;4044390;29;20032;-68
2022/08/08 09:13:18;;;;;;;;;;;26.30;81.60;;;;;;4046441;29;20100;-69
2022/08/08 09:15:19;;;;;;;2.42;1.85;;;26.30;81.10;;;;;;4044554;29;19923;-69
2022/08/08 09:17:20;;;;;;;3.03;1.83;;;26.40;83.70;;;;;;4045791;29;20051;-68
2022/08/08 09:19:20;;;;;;;3.45;2.17;;;26.40;82.10;;;;;;4046076;29;20033;-69
2022/08/08 09:21:22;;;;;;;3.25;2.13;;;26.50;82.10;;;;;;4044357;29;20045;-68
2022/08/08 09:23:24;;;;;;;2.17;1.83;;;26.60;81.30;;;;;;4045856;29;20043;-68
2022/08/08 09:25:25;;;;;;;2.13;1.73;;;26.60;82.20;;;;;;4045996;29;20068;-69
2022/08/08 09:27:26;;;;;;;3.45;1.90;;;26.70;81.10;;;;;;4047073;29;20684;-69
2022/08/08 09:29:31;;;;;;;2.47;1.60;;;26.70;80.90;;;;;;4045380;29;20040;-68
2022/08/08 09:32:04;;;;;;;4.32;1.73;;;26.70;81.00;;;;;;4044491;29;20089;-68
2022/08/08 09:37:09;;;;;;;2.80;1.92;;;26.70;81.10;;;;;;4044752;29;20067;-69
2022/08/08 09:39:10;;;;;;;2.50;2.13;;;26.60;78.50;;;;;;4044817;29;20044;-68
2022/08/08 09:41:14;;;;;;;2.35;1.70;;;26.70;80.20;;;;;;4041378;29;20043;-68
2022/08/08 09:43:23;;;;;;;2.50;1.77;;;26.80;80.90;;;;;;4044547;29;20487;-69
2022/08/08 09:45:32;;;;;;;2.47;1.48;;;26.80;77.10;;;;;;4047284;29;20709;-69
2022/08/08 09:47:36;;;;;;;6.07;2.20;;;26.80;82.10;;;;;;4045973;29;20551;-68
2022/08/08 09:49:37;;;;;;;3.47;1.80;;;26.90;79.50;;;;;;4043875;29;20061;-69
2022/08/08 09:51:39;;;;;;;9.00;2.08;;;26.90;79.60;;;;;;4045364;29;20432;-69
2022/08/08 09:53:47;;;;;;;3.28;2.30;;;26.90;78.70;;;;;;4043676;29;20033;-68
2022/08/08 09:55:47;;;;;;;2.38;1.83;;;27.00;79.50;;;;;;4044675;29;20036;-69
2022/08/08 09:57:50;;;;;;;1.90;1.70;;;27.10;78.60;;;;;;4044375;29;20051;-69
2022/08/08 09:59:51;;;;;;;2.28;1.88;;;27.10;79.20;;;;;;4044570;29;20064;-68
2022/08/08 10:01:52;;;;;;;3.78;2.20;;;27.00;77.90;;;;;;4042624;29;20041;-70
2022/08/08 10:03:56;;;;;;;3.60;1.77;;;27.00;77.90;;;;;;4044868;29;20511;-69
2022/08/08 10:05:56;;;;;;;2.80;1.95;;;27.00;74.30;;;;;;4045299;29;20127;-67
2022/08/08 10:07:57;;;;;;;3.00;1.90;;;27.00;80.30;;;;;;4046072;29;20512;-66
2022/08/08 10:09:58;;;;;;;3.53;1.80;;;27.00;75.40;;;;;;4045697;29;20060;-68
2022/08/08 10:12:01;;;;;;;2.67;1.95;;;27.00;76.70;;;;;;4044470;29;20507;-68
2022/08/08 10:14:03;;;;;;;2.50;1.75;;;27.00;80.80;;;;;;4044740;29;20040;-69
2022/08/08 10:16:04;;;;;;;2.88;1.50;;;26.70;74.10;;;;;;4044586;29;20083;-68
2022/08/08 10:18:05;;;;;;;5.10;1.60;;;26.80;76.00;;;;;;4045608;29;20037;-69
2022/08/08 10:20:06;;;;;;;2.53;1.60;;;26.80;78.50;;;;;;4046730;29;20040;-69
2022/08/08 10:22:08;;;;;;;1.98;1.50;;;26.90;77.40;;;;;;4058394;29;20564;-68
2022/08/08 10:24:11;;;;;;;2.97;1.95;;;26.90;77.00;;;;;;4044424;29;20036;-68
2022/08/08 10:26:24;;;;;;;2.47;1.67;;;27.00;73.10;;;;;;4048694;29;20417;-68
2022/08/08 10:28:26;;;;;;;3.95;1.67;;;27.00;77.00;;;;;;4045087;29;20048;-69
2022/08/08 10:30:26;;;;;;;2.92;1.65;;;27.10;77.70;;;;;;4044197;29;20044;-68
2022/08/08 10:32:36;;;;;;;2.65;1.83;;;27.20;74.90;;;;;;4044334;29;20857;-69
2022/08/08 10:34:48;;;;;;;2.20;1.40;;;27.10;72.60;;;;;;4045534;29;20041;-68
2022/08/08 10:36:50;;;;;;;2.35;1.85;;;27.20;73.50;;;;;;4043914;29;20131;-69
2022/08/08 10:38:54;;;;;;;2.35;1.80;;;27.20;75.30;;;;;;4044829;29;20159;-69
2022/08/08 10:40:55;;;;;;;3.00;1.67;;;27.10;72.90;;;;;;4044033;29;20055;-69
2022/08/08 10:43:01;;;;;;;2.50;1.73;;;27.20;74.90;;;;;;4045150;29;20044;-69
2022/08/08 10:45:05;;;;;;;3.38;1.70;;;26.90;72.60;;;;;;4057957;29;20060;-70
2022/08/08 10:47:12;;;;;;;2.30;1.70;;;26.70;72.50;;;;;;4059388;29;20036;-69
2022/08/08 10:49:18;;;;;;;2.33;1.70;;;26.70;74.00;;;;;;4059324;29;20092;-71
2022/08/08 10:51:28;;;;;;;2.40;1.58;;;26.60;75.30;;;;;;4059184;29;20115;-69
2022/08/08 10:53:37;;;;;;;2.10;1.63;;;26.70;76.20;;;;;;4060363;29;20085;-69
2022/08/08 10:55:38;;;;;;;2.20;1.65;;;26.70;74.80;;;;;;4059619;29;20079;-68
2022/08/08 10:57:44;;;;;;;3.17;1.48;;;26.80;73.60;;;;;;4060002;29;20040;-68
2022/08/08 10:59:58;;;;;;;2.22;1.60;;;26.70;74.30;;;;;;4060798;29;20399;-69
2022/08/08 11:01:58;;;;;;;1.67;1.25;;;26.80;74.60;;;;;;4059001;29;20032;-69
2022/08/08 11:04:00;;;;;;;3.00;1.60;;;26.80;74.80;;;;;;4060188;29;20547;-69
2022/08/08 11:06:00;;;;;;;2.60;1.70;;;26.90;76.50;;;;;;4062550;29;20072;-69
2022/08/08 11:08:01;;;;;;;2.63;1.70;;;26.90;74.20;;;;;;4064654;29;20047;-69
2022/08/08 11:10:16;;;;;;;2.33;1.75;;;26.90;76.40;;;;;;4064078;29;20029;-69
2022/08/08 11:12:17;;;;;;;5.13;1.45;;;26.90;75.80;;;;;;4062564;29;20032;-68
2022/08/08 11:14:17;;;;;;;2.80;1.65;;;26.90;78.10;;;;;;4062862;29;20037;-68
2022/08/08 11:16:26;;;;;;;1.45;1.35;;;27.00;78.60;;;;;;4062647;29;20111;-69
2022/08/08 11:18:29;;;;;;;3.72;1.83;;;27.00;74.80;;;;;;4062286;29;20044;-69